sensor_id;sensor_type;location;lat;lon;timestamp;pressure;altitude;pressure_sealevel;temperature;humidity
2549;BME280;1284;53.520;10.248;2023-12-07T00:01:32;100953.16;;;4.36;97.17
2549;BME280;1284;53.520;10.248;2023-12-07T00:04:00;100958.41;;;4.28;97.63
2549;BME280;1284;53.520;10.248;2023-12-07T00:06:25;100964.53;;;4.28;97.84
2549;BME280;1284;53.520;10.248;2023-12-07T00:08:51;100979.28;;;4.04;98.69
2549;BME280;1284;53.520;10.248;2023-12-07T00:11:17;100977.13;;;4.14;98.68
2549;BME280;1284;53.520;10.248;2023-12-07T00:13:42;100970.13;;;4.18;98.75
2549;BME280;1284;53.520;10.248;2023-12-07T00:16:08;100968.88;;;4.16;97.83
2549;BME280;1284;53.520;10.248;2023-12-07T00:18:33;100965.56;;;4.19;98.23
2549;BME280;1284;53.520;10.248;2023-12-07T00:20:58;100963.06;;;4.14;98.63
2549;BME280;1284;53.520;10.248;2023-12-07T00:23:24;100970.41;;;4.17;98.51
2549;BME280;1284;53.520;10.248;2023-12-07T00:25:50;100966.78;;;4.13;99.11
2549;BME280;1284;53.520;10.248;2023-12-07T00:28:15;100970.41;;;4.17;98.77
2549;BME280;1284;53.520;10.248;2023-12-07T00:30:41;100973.25;;;4.20;98.34
2549;BME280;1284;53.520;10.248;2023-12-07T00:33:08;100991.88;;;4.12;98.38
2549;BME280;1284;53.520;10.248;2023-12-07T00:35:34;100991.56;;;4.13;98.40
2549;BME280;1284;53.520;10.248;2023-12-07T00:38:01;100991.88;;;4.12;98.92
2549;BME280;1284;53.520;10.248;2023-12-07T00:40:26;100989.31;;;4.07;98.75
2549;BME280;1284;53.520;10.248;2023-12-07T00:42:52;100990.78;;;4.13;99.17
2549;BME280;1284;53.520;10.248;2023-12-07T00:45:18;100989.22;;;4.12;99.04
2549;BME280;1284;53.520;10.248;2023-12-07T00:47:43;100999.88;;;4.12;99.03
2549;BME280;1284;53.520;10.248;2023-12-07T00:50:12;100995.50;;;4.16;98.73
2549;BME280;1284;53.520;10.248;2023-12-07T00:52:38;101002.56;;;4.20;98.65
2549;BME280;1284;53.520;10.248;2023-12-07T00:55:04;100996.47;;;4.20;98.34
2549;BME280;1284;53.520;10.248;2023-12-07T00:57:29;100997.63;;;4.27;98.00
2549;BME280;1284;53.520;10.248;2023-12-07T00:59:55;100988.97;;;4.22;98.36
2549;BME280;1284;53.520;10.248;2023-12-07T01:02:20;100991.16;;;4.20;98.31
2549;BME280;1284;53.520;10.248;2023-12-07T01:04:46;101004.25;;;4.16;98.42
2549;BME280;1284;53.520;10.248;2023-12-07T01:07:12;101007.50;;;4.27;97.97
2549;BME280;1284;53.520;10.248;2023-12-07T01:09:38;101003.84;;;4.23;98.48
2549;BME280;1284;53.520;10.248;2023-12-07T01:12:03;101004.97;;;4.22;98.58
2549;BME280;1284;53.520;10.248;2023-12-07T01:14:29;101002.56;;;4.20;98.27
2549;BME280;1284;53.520;10.248;2023-12-07T01:16:54;101016.69;;;4.21;98.40
2549;BME280;1284;53.520;10.248;2023-12-07T01:19:20;101010.78;;;4.24;98.33
2549;BME280;1284;53.520;10.248;2023-12-07T01:21:46;101025.91;;;4.15;98.61
2549;BME280;1284;53.520;10.248;2023-12-07T01:24:12;101026.38;;;4.17;98.29
2549;BME280;1284;53.520;10.248;2023-12-07T01:26:37;101027.66;;;4.19;98.55
2549;BME280;1284;53.520;10.248;2023-12-07T01:29:03;101039.88;;;4.20;98.61
2549;BME280;1284;53.520;10.248;2023-12-07T01:31:29;101045.69;;;4.22;98.49
2549;BME280;1284;53.520;10.248;2023-12-07T01:33:55;101039.59;;;4.22;98.45
2549;BME280;1284;53.520;10.248;2023-12-07T01:36:20;101044.44;;;4.20;98.16
2549;BME280;1284;53.520;10.248;2023-12-07T01:38:46;101044.31;;;4.25;98.33
2549;BME280;1284;53.520;10.248;2023-12-07T01:41:11;101051.50;;;4.24;98.04
2549;BME280;1284;53.520;10.248;2023-12-07T01:43:37;101059.09;;;4.31;98.10
2549;BME280;1284;53.520;10.248;2023-12-07T01:46:03;101048.53;;;4.26;98.16
2549;BME280;1284;53.520;10.248;2023-12-07T01:48:29;101054.34;;;4.28;98.46
2549;BME280;1284;53.520;10.248;2023-12-07T01:50:55;101050.84;;;4.19;98.02
2549;BME280;1284;53.520;10.248;2023-12-07T01:53:23;101056.34;;;4.22;98.67
2549;BME280;1284;53.520;10.248;2023-12-07T01:55:51;101060.78;;;4.27;98.15
2549;BME280;1284;53.520;10.248;2023-12-07T01:58:18;101066.44;;;4.25;98.32
2549;BME280;1284;53.520;10.248;2023-12-07T02:00:45;101068.31;;;4.25;98.21
2549;BME280;1284;53.520;10.248;2023-12-07T02:03:11;101063.59;;;4.22;98.63
2549;BME280;1284;53.520;10.248;2023-12-07T02:05:42;101060.97;;;4.30;98.01
2549;BME280;1284;53.520;10.248;2023-12-07T02:08:07;101059.69;;;4.28;98.18
2549;BME280;1284;53.520;10.248;2023-12-07T02:10:33;101057.63;;;4.25;97.70
2549;BME280;1284;53.520;10.248;2023-12-07T02:12:59;101057.63;;;4.25;98.22
2549;BME280;1284;53.520;10.248;2023-12-07T02:15:24;101064.53;;;4.26;98.39
2549;BME280;1284;53.520;10.248;2023-12-07T02:20:43;101060.78;;;4.27;98.45
2549;BME280;1284;53.520;10.248;2023-12-07T02:23:14;101054.84;;;4.30;97.98
2549;BME280;1284;53.520;10.248;2023-12-07T02:28:04;101068.56;;;4.37;97.93
2549;BME280;1284;53.520;10.248;2023-12-07T02:30:30;101062.56;;;4.31;98.04
2549;BME280;1284;53.520;10.248;2023-12-07T02:32:55;101071.16;;;4.28;98.18
2549;BME280;1284;53.520;10.248;2023-12-07T02:35:21;101073.00;;;4.28;98.27
2549;BME280;1284;53.520;10.248;2023-12-07T02:37:50;101074.47;;;4.34;98.19
2549;BME280;1284;53.520;10.248;2023-12-07T02:40:24;101069.94;;;4.34;97.95
2549;BME280;1284;53.520;10.248;2023-12-07T02:42:52;101071.31;;;4.32;97.52
2549;BME280;1284;53.520;10.248;2023-12-07T02:45:18;101070.25;;;4.33;97.78
2549;BME280;1284;53.520;10.248;2023-12-07T02:47:44;101073.50;;;4.30;98.10
2549;BME280;1284;53.520;10.248;2023-12-07T02:50:11;101074.59;;;4.29;97.89
2549;BME280;1284;53.520;10.248;2023-12-07T02:52:37;101075.59;;;4.33;97.67
2549;BME280;1284;53.520;10.248;2023-12-07T02:55:02;101080.91;;;4.33;98.18
2549;BME280;1284;53.520;10.248;2023-12-07T02:57:28;101077.09;;;4.25;98.06
2549;BME280;1284;53.520;10.248;2023-12-07T02:59:55;101080.53;;;4.26;98.22
2549;BME280;1284;53.520;10.248;2023-12-07T03:02:20;101083.19;;;4.26;98.19
2549;BME280;1284;53.520;10.248;2023-12-07T03:04:46;101087.81;;;4.34;98.11
2549;BME280;1284;53.520;10.248;2023-12-07T03:07:11;101086.72;;;4.35;97.57
2549;BME280;1284;53.520;10.248;2023-12-07T03:09:36;101084.38;;;4.33;97.68
2549;BME280;1284;53.520;10.248;2023-12-07T03:12:02;101088.91;;;4.33;97.55
2549;BME280;1284;53.520;10.248;2023-12-07T03:14:27;101091.25;;;4.34;97.47
2549;BME280;1284;53.520;10.248;2023-12-07T03:16:53;101094.72;;;4.35;97.22
2549;BME280;1284;53.520;10.248;2023-12-07T03:19:18;101093.25;;;4.29;98.07
2549;BME280;1284;53.520;10.248;2023-12-07T03:21:44;101091.25;;;4.34;97.61
2549;BME280;1284;53.520;10.248;2023-12-07T03:24:09;101089.88;;;4.37;97.72
2549;BME280;1284;53.520;10.248;2023-12-07T03:26:36;101088.28;;;4.36;97.24
2549;BME280;1284;53.520;10.248;2023-12-07T03:29:02;101089.50;;;4.30;98.03
2549;BME280;1284;53.520;10.248;2023-12-07T03:31:28;101087.03;;;4.33;97.80
2549;BME280;1284;53.520;10.248;2023-12-07T03:33:54;101090.59;;;4.29;97.32
2549;BME280;1284;53.520;10.248;2023-12-07T03:36:20;101095.13;;;4.28;98.25
2549;BME280;1284;53.520;10.248;2023-12-07T03:38:45;101093.94;;;4.34;97.73
2549;BME280;1284;53.520;10.248;2023-12-07T03:41:11;101093.63;;;4.36;97.00
2549;BME280;1284;53.520;10.248;2023-12-07T03:43:36;101091.56;;;4.33;97.38
2549;BME280;1284;53.520;10.248;2023-12-07T03:46:06;101100.63;;;4.32;97.48
2549;BME280;1284;53.520;10.248;2023-12-07T03:48:34;101098.09;;;4.27;97.88
2549;BME280;1284;53.520;10.248;2023-12-07T03:51:00;101095.13;;;4.28;98.31
2549;BME280;1284;53.520;10.248;2023-12-07T03:53:26;101095.13;;;4.28;97.93
2549;BME280;1284;53.520;10.248;2023-12-07T03:55:51;101102.41;;;4.36;97.56
2549;BME280;1284;53.520;10.248;2023-12-07T03:58:17;101103.63;;;4.30;97.26
2549;BME280;1284;53.520;10.248;2023-12-07T04:00:44;101100.28;;;4.25;98.12
2549;BME280;1284;53.520;10.248;2023-12-07T04:03:10;101101.38;;;4.24;98.47
2549;BME280;1284;53.520;10.248;2023-12-07T04:05:35;101091.97;;;4.26;98.30
2549;BME280;1284;53.520;10.248;2023-12-07T04:08:01;101095.31;;;4.32;97.86
2549;BME280;1284;53.520;10.248;2023-12-07T04:10:26;101097.38;;;4.35;98.37
2549;BME280;1284;53.520;10.248;2023-12-07T04:12:52;101099.56;;;4.33;98.05
2549;BME280;1284;53.520;10.248;2023-12-07T04:15:20;101106.28;;;4.30;97.86
2549;BME280;1284;53.520;10.248;2023-12-07T04:17:46;101106.19;;;4.35;97.35
2549;BME280;1284;53.520;10.248;2023-12-07T04:20:12;101109.63;;;4.36;97.52
2549;BME280;1284;53.520;10.248;2023-12-07T04:22:38;101119.44;;;4.27;97.97
2549;BME280;1284;53.520;10.248;2023-12-07T04:25:05;101110.31;;;4.28;98.14
2549;BME280;1284;53.520;10.248;2023-12-07T04:27:31;101113.88;;;4.37;98.39
2549;BME280;1284;53.520;10.248;2023-12-07T04:29:56;101106.19;;;4.35;97.95
2549;BME280;1284;53.520;10.248;2023-12-07T04:32:22;101115.63;;;4.41;97.41
2549;BME280;1284;53.520;10.248;2023-12-07T04:34:48;101107.03;;;4.44;96.79
2549;BME280;1284;53.520;10.248;2023-12-07T04:37:13;101109.91;;;4.34;97.52
2549;BME280;1284;53.520;10.248;2023-12-07T04:39:38;101109.13;;;4.34;97.75
2549;BME280;1284;53.520;10.248;2023-12-07T04:42:04;101099.44;;;4.38;97.74
2549;BME280;1284;53.520;10.248;2023-12-07T04:44:29;101111.25;;;4.45;97.03
2549;BME280;1284;53.520;10.248;2023-12-07T04:46:55;101108.53;;;4.37;97.45
2549;BME280;1284;53.520;10.248;2023-12-07T04:49:20;101121.38;;;4.35;97.75
2549;BME280;1284;53.520;10.248;2023-12-07T04:51:46;101116.63;;;4.32;98.25
2549;BME280;1284;53.520;10.248;2023-12-07T04:54:14;101115.06;;;4.31;97.87
2549;BME280;1284;53.520;10.248;2023-12-07T04:56:40;101121.38;;;4.35;98.14
2549;BME280;1284;53.520;10.248;2023-12-07T04:59:06;101123.25;;;4.34;98.17
2549;BME280;1284;53.520;10.248;2023-12-07T05:01:31;101122.94;;;4.36;97.89
2549;BME280;1284;53.520;10.248;2023-12-07T05:03:57;101116.06;;;4.35;98.10
2549;BME280;1284;53.520;10.248;2023-12-07T05:06:22;101129.25;;;4.40;97.83
2549;BME280;1284;53.520;10.248;2023-12-07T05:08:47;101140.88;;;4.44;97.98
2549;BME280;1284;53.520;10.248;2023-12-07T05:11:13;101136.19;;;4.41;97.79
2549;BME280;1284;53.520;10.248;2023-12-07T05:13:41;101140.34;;;4.33;98.14
2549;BME280;1284;53.520;10.248;2023-12-07T05:16:07;101144.25;;;4.36;98.06
2549;BME280;1284;53.520;10.248;2023-12-07T05:18:33;101143.38;;;4.40;97.84
2549;BME280;1284;53.520;10.248;2023-12-07T05:20:58;101136.75;;;4.38;97.95
2549;BME280;1284;53.520;10.248;2023-12-07T05:23:24;101133.03;;;4.39;97.97
2549;BME280;1284;53.520;10.248;2023-12-07T05:25:49;101134.88;;;4.38;97.51
2549;BME280;1284;53.520;10.248;2023-12-07T05:28:15;101144.88;;;4.33;97.26
2549;BME280;1284;53.520;10.248;2023-12-07T05:30:40;101139.56;;;4.33;98.13
2549;BME280;1284;53.520;10.248;2023-12-07T05:33:09;101147.25;;;4.34;98.23
2549;BME280;1284;53.520;10.248;2023-12-07T05:35:34;101139.44;;;4.38;97.87
2549;BME280;1284;53.520;10.248;2023-12-07T05:37:59;101138.94;;;4.36;98.22
2549;BME280;1284;53.520;10.248;2023-12-07T05:40:25;101146.03;;;4.40;97.88
2549;BME280;1284;53.520;10.248;2023-12-07T05:42:51;101147.25;;;4.34;97.89
2549;BME280;1284;53.520;10.248;2023-12-07T05:45:16;101150.69;;;4.35;97.96
2549;BME280;1284;53.520;10.248;2023-12-07T05:47:42;101145.97;;;4.32;97.99
2549;BME280;1284;53.520;10.248;2023-12-07T05:50:07;101155.53;;;4.33;98.18
2549;BME280;1284;53.520;10.248;2023-12-07T05:52:33;101157.09;;;4.34;98.42
2549;BME280;1284;53.520;10.248;2023-12-07T05:54:59;101151.38;;;4.40;98.21
2549;BME280;1284;53.520;10.248;2023-12-07T05:57:24;101149.78;;;4.39;98.00
2549;BME280;1284;53.520;10.248;2023-12-07T05:59:50;101153.91;;;4.45;97.40
2549;BME280;1284;53.520;10.248;2023-12-07T06:02:16;101149.19;;;4.42;97.40
2549;BME280;1284;53.520;10.248;2023-12-07T06:04:41;101149.19;;;4.42;98.12
2549;BME280;1284;53.520;10.248;2023-12-07T06:07:07;101153.16;;;4.45;98.26
2549;BME280;1284;53.520;10.248;2023-12-07T06:09:32;101150.16;;;4.46;97.67
2549;BME280;1284;53.520;10.248;2023-12-07T06:11:58;101150.00;;;4.43;97.88
2549;BME280;1284;53.520;10.248;2023-12-07T06:14:23;101146.72;;;4.46;97.65
2549;BME280;1284;53.520;10.248;2023-12-07T06:16:49;101156.09;;;4.43;97.82
2549;BME280;1284;53.520;10.248;2023-12-07T06:19:14;101152.34;;;4.44;98.12
2549;BME280;1284;53.520;10.248;2023-12-07T06:21:40;101158.47;;;4.45;98.26
2549;BME280;1284;53.520;10.248;2023-12-07T06:24:05;101163.69;;;4.50;98.14
2549;BME280;1284;53.520;10.248;2023-12-07T06:26:32;101162.72;;;4.46;97.66
2549;BME280;1284;53.520;10.248;2023-12-07T06:28:58;101160.84;;;4.46;97.86
2549;BME280;1284;53.520;10.248;2023-12-07T06:31:23;101162.41;;;4.47;98.15
2549;BME280;1284;53.520;10.248;2023-12-07T06:33:49;101162.13;;;4.49;97.87
2549;BME280;1284;53.520;10.248;2023-12-07T06:36:18;101159.56;;;4.44;97.93
2549;BME280;1284;53.520;10.248;2023-12-07T06:38:44;101160.34;;;4.44;98.23
2549;BME280;1284;53.520;10.248;2023-12-07T06:41:10;101168.84;;;4.46;97.88
2549;BME280;1284;53.520;10.248;2023-12-07T06:43:35;101169.91;;;4.45;98.14
2549;BME280;1284;53.520;10.248;2023-12-07T06:46:01;101170.41;;;4.47;97.93
2549;BME280;1284;53.520;10.248;2023-12-07T06:48:26;101164.78;;;4.49;98.10
2549;BME280;1284;53.520;10.248;2023-12-07T06:50:51;101179.69;;;4.50;97.73
2549;BME280;1284;53.520;10.248;2023-12-07T06:53:17;101179.38;;;4.51;98.03
2549;BME280;1284;53.520;10.248;2023-12-07T06:55:44;101188.47;;;4.50;97.61
2549;BME280;1284;53.520;10.248;2023-12-07T06:58:10;101198.22;;;4.55;97.56
2549;BME280;1284;53.520;10.248;2023-12-07T07:00:35;101190.84;;;4.52;97.87
2549;BME280;1284;53.520;10.248;2023-12-07T07:03:01;101194.47;;;4.56;97.59
2549;BME280;1284;53.520;10.248;2023-12-07T07:05:27;101193.50;;;4.52;97.67
2549;BME280;1284;53.520;10.248;2023-12-07T07:07:53;101189.94;;;4.56;98.04
2549;BME280;1284;53.520;10.248;2023-12-07T07:10:18;101189.94;;;4.56;97.40
2549;BME280;1284;53.520;10.248;2023-12-07T07:12:43;101197.25;;;4.51;97.60
2549;BME280;1284;53.520;10.248;2023-12-07T07:15:09;101201.50;;;4.52;98.18
2549;BME280;1284;53.520;10.248;2023-12-07T07:17:35;101186.47;;;4.56;98.00
2549;BME280;1284;53.520;10.248;2023-12-07T07:20:00;101191.19;;;4.59;97.61
2549;BME280;1284;53.520;10.248;2023-12-07T07:22:26;101190.22;;;4.55;97.33
2549;BME280;1284;53.520;10.248;2023-12-07T07:24:51;101199.91;;;4.51;98.20
2549;BME280;1284;53.520;10.248;2023-12-07T07:27:17;101209.00;;;4.50;98.06
2549;BME280;1284;53.520;10.248;2023-12-07T07:29:43;101214.22;;;4.55;97.69
2549;BME280;1284;53.520;10.248;2023-12-07T07:32:08;101208.13;;;4.54;98.07
2549;BME280;1284;53.520;10.248;2023-12-07T07:34:34;101209.50;;;4.52;98.64
2549;BME280;1284;53.520;10.248;2023-12-07T07:36:59;101206.03;;;4.51;98.03
2549;BME280;1284;53.520;10.248;2023-12-07T07:39:25;101202.78;;;4.54;98.24
2549;BME280;1284;53.520;10.248;2023-12-07T07:41:50;101207.81;;;4.56;98.46
2549;BME280;1284;53.520;10.248;2023-12-07T07:44:15;101188.84;;;4.57;97.55
2549;BME280;1284;53.520;10.248;2023-12-07T07:46:42;101200.47;;;4.62;98.14
2549;BME280;1284;53.520;10.248;2023-12-07T07:49:07;101198.13;;;4.60;98.01
2549;BME280;1284;53.520;10.248;2023-12-07T07:51:33;101200.47;;;4.62;97.72
2549;BME280;1284;53.520;10.248;2023-12-07T07:53:59;101197.03;;;4.61;98.08
2549;BME280;1284;53.520;10.248;2023-12-07T07:56:26;101192.78;;;4.60;97.79
2549;BME280;1284;53.520;10.248;2023-12-07T07:58:52;101208.19;;;4.63;98.36
2549;BME280;1284;53.520;10.248;2023-12-07T08:01:17;101212.44;;;4.64;98.00
2549;BME280;1284;53.520;10.248;2023-12-07T08:03:42;101211.94;;;4.62;98.52
2549;BME280;1284;53.520;10.248;2023-12-07T08:06:08;101217.78;;;4.64;98.14
2549;BME280;1284;53.520;10.248;2023-12-07T08:08:33;101226.53;;;4.65;97.77
2549;BME280;1284;53.520;10.248;2023-12-07T08:10:59;101228.63;;;4.68;97.83
2549;BME280;1284;53.520;10.248;2023-12-07T08:13:26;101230.41;;;4.72;98.33
2549;BME280;1284;53.520;10.248;2023-12-07T08:15:53;101239.06;;;4.78;97.62
2549;BME280;1284;53.520;10.248;2023-12-07T08:18:18;101236.81;;;4.71;97.60
2549;BME280;1284;53.520;10.248;2023-12-07T08:20:47;101228.31;;;4.69;97.79
2549;BME280;1284;53.520;10.248;2023-12-07T08:23:12;101236.72;;;4.76;98.06
2549;BME280;1284;53.520;10.248;2023-12-07T08:25:40;101243.72;;;4.72;97.71
2549;BME280;1284;53.520;10.248;2023-12-07T08:28:06;101243.78;;;4.81;97.47
2549;BME280;1284;53.520;10.248;2023-12-07T08:30:34;101240.75;;;4.74;97.84
2549;BME280;1284;53.520;10.248;2023-12-07T08:33:00;101245.28;;;4.73;97.80
2549;BME280;1284;53.520;10.248;2023-12-07T08:35:25;101255.66;;;4.75;98.13
2549;BME280;1284;53.520;10.248;2023-12-07T08:37:50;101244.91;;;4.80;97.95
2549;BME280;1284;53.520;10.248;2023-12-07T08:40:16;101244.41;;;4.78;98.07
2549;BME280;1284;53.520;10.248;2023-12-07T08:42:46;101242.41;;;4.83;98.38
2549;BME280;1284;53.520;10.248;2023-12-07T08:45:12;101242.28;;;4.88;97.21
2549;BME280;1284;53.520;10.248;2023-12-07T08:47:41;101254.38;;;4.86;97.73
2549;BME280;1284;53.520;10.248;2023-12-07T08:50:07;101257.09;;;4.94;97.12
2549;BME280;1284;53.520;10.248;2023-12-07T08:52:33;101254.22;;;4.91;97.13
2549;BME280;1284;53.520;10.248;2023-12-07T08:54:59;101260.84;;;4.93;97.61
2549;BME280;1284;53.520;10.248;2023-12-07T08:57:25;101259.88;;;4.89;97.59
2549;BME280;1284;53.520;10.248;2023-12-07T08:59:50;101258.28;;;4.88;97.76
2549;BME280;1284;53.520;10.248;2023-12-07T09:02:15;101255.88;;;5.00;97.21
2549;BME280;1284;53.520;10.248;2023-12-07T09:04:41;101252.22;;;4.96;97.00
2549;BME280;1284;53.520;10.248;2023-12-07T09:07:07;101252.13;;;5.01;97.44
2549;BME280;1284;53.520;10.248;2023-12-07T09:09:32;101256.38;;;5.02;97.28
2549;BME280;1284;53.520;10.248;2023-12-07T09:11:57;101256.06;;;5.04;96.65
2549;BME280;1284;53.520;10.248;2023-12-07T09:14:23;101258.31;;;5.10;96.88
2549;BME280;1284;53.520;10.248;2023-12-07T09:16:48;101263.84;;;5.14;96.35
2549;BME280;1284;53.520;10.248;2023-12-07T09:19:14;101256.63;;;5.14;96.67
2549;BME280;1284;53.520;10.248;2023-12-07T09:21:40;101270.47;;;5.16;95.85
2549;BME280;1284;53.520;10.248;2023-12-07T09:24:06;101266.31;;;5.10;96.34
2549;BME280;1284;53.520;10.248;2023-12-07T09:26:32;101261.22;;;5.00;96.68
2549;BME280;1284;53.520;10.248;2023-12-07T09:28:57;101254.91;;;4.96;97.07
2549;BME280;1284;53.520;10.248;2023-12-07T09:31:23;101266.38;;;4.97;97.32
2549;BME280;1284;53.520;10.248;2023-12-07T09:33:48;101256.69;;;5.01;97.69
2549;BME280;1284;53.520;10.248;2023-12-07T09:36:17;101264.63;;;5.14;96.90
2549;BME280;1284;53.520;10.248;2023-12-07T09:38:44;101266.72;;;5.04;96.64
2549;BME280;1284;53.520;10.248;2023-12-07T09:41:09;101264.84;;;5.04;97.24
2549;BME280;1284;53.520;10.248;2023-12-07T09:43:35;101261.56;;;5.07;97.26
2549;BME280;1284;53.520;10.248;2023-12-07T09:46:00;101276.63;;;5.03;97.13
2549;BME280;1284;53.520;10.248;2023-12-07T09:48:26;101256.84;;;5.04;97.27
2549;BME280;1284;53.520;10.248;2023-12-07T09:50:52;101267.22;;;5.06;97.98
2549;BME280;1284;53.520;10.248;2023-12-07T09:53:20;101266.56;;;5.22;97.60
2549;BME280;1284;53.520;10.248;2023-12-07T09:55:46;101256.25;;;5.29;96.64
2549;BME280;1284;53.520;10.248;2023-12-07T09:58:12;101265.47;;;5.23;96.21
2549;BME280;1284;53.520;10.248;2023-12-07T10:00:37;101262.50;;;5.25;96.63
2549;BME280;1284;53.520;10.248;2023-12-07T10:03:03;101264.41;;;5.24;96.43
2549;BME280;1284;53.520;10.248;2023-12-07T10:05:29;101255.91;;;5.22;96.91
2549;BME280;1284;53.520;10.248;2023-12-07T10:07:55;101261.34;;;5.17;96.50
2549;BME280;1284;53.520;10.248;2023-12-07T10:10:20;101261.00;;;5.10;97.53
2549;BME280;1284;53.520;10.248;2023-12-07T10:15:16;101268.09;;;5.15;97.41
2549;BME280;1284;53.520;10.248;2023-12-07T10:20:21;101272.09;;;5.26;96.79
2549;BME280;1284;53.520;10.248;2023-12-07T10:23:04;101276.00;;;5.28;96.15
2549;BME280;1284;53.520;10.248;2023-12-07T10:25:35;101273.06;;;5.30;96.31
2549;BME280;1284;53.520;10.248;2023-12-07T10:28:01;101268.75;;;5.20;97.02
2549;BME280;1284;53.520;10.248;2023-12-07T10:30:32;101271.13;;;5.22;97.06
2549;BME280;1284;53.520;10.248;2023-12-07T10:32:57;101278.34;;;5.21;97.39
2549;BME280;1284;53.520;10.248;2023-12-07T10:35:23;101271.00;;;5.27;96.83
2549;BME280;1284;53.520;10.248;2023-12-07T10:37:48;101269.13;;;5.27;96.61
2549;BME280;1284;53.520;10.248;2023-12-07T10:40:14;101275.00;;;5.38;97.00
2549;BME280;1284;53.520;10.248;2023-12-07T10:42:41;101279.88;;;5.36;96.15
2549;BME280;1284;53.520;10.248;2023-12-07T10:45:10;101269.59;;;5.29;96.15
2549;BME280;1284;53.520;10.248;2023-12-07T10:47:39;101263.78;;;5.27;96.46
2549;BME280;1284;53.520;10.248;2023-12-07T10:50:09;101267.41;;;5.31;97.00
2549;BME280;1284;53.520;10.248;2023-12-07T10:52:45;101272.69;;;5.23;97.13
2549;BME280;1284;53.520;10.248;2023-12-07T10:55:16;101271.78;;;5.27;97.03
2549;BME280;1284;53.520;10.248;2023-12-07T10:57:46;101272.28;;;5.29;97.23
2549;BME280;1284;53.520;10.248;2023-12-07T11:00:12;101276.41;;;5.35;96.97
2549;BME280;1284;53.520;10.248;2023-12-07T11:02:39;101280.16;;;5.34;96.12
2549;BME280;1284;53.520;10.248;2023-12-07T11:05:06;101280.28;;;5.29;97.10
2549;BME280;1284;53.520;10.248;2023-12-07T11:07:47;101273.56;;;5.32;97.31
2549;BME280;1284;53.520;10.248;2023-12-07T11:10:43;101270.09;;;5.31;96.87
2549;BME280;1284;53.520;10.248;2023-12-07T11:13:27;101273.97;;;5.25;97.47
2549;BME280;1284;53.520;10.248;2023-12-07T11:15:55;101271.16;;;5.30;97.93
2549;BME280;1284;53.520;10.248;2023-12-07T11:18:21;101263.94;;;5.31;97.04
2549;BME280;1284;53.520;10.248;2023-12-07T11:20:46;101268.38;;;5.35;97.44
2549;BME280;1284;53.520;10.248;2023-12-07T11:23:16;101273.56;;;5.32;97.77
2549;BME280;1284;53.520;10.248;2023-12-07T11:25:46;101274.31;;;5.32;97.30
2549;BME280;1284;53.520;10.248;2023-12-07T11:28:12;101262.25;;;5.35;97.61
2549;BME280;1284;53.520;10.248;2023-12-07T11:30:38;101256.97;;;5.43;97.45
2549;BME280;1284;53.520;10.248;2023-12-07T11:33:06;101254.13;;;5.40;97.00
2549;BME280;1284;53.520;10.248;2023-12-07T11:35:32;101257.25;;;5.42;97.31
2549;BME280;1284;53.520;10.248;2023-12-07T11:38:08;101251.88;;;5.33;96.84
2549;BME280;1284;53.520;10.248;2023-12-07T11:40:43;101254.13;;;5.40;97.17
2549;BME280;1284;53.520;10.248;2023-12-07T11:43:40;101249.06;;;5.38;97.12
2549;BME280;1284;53.520;10.248;2023-12-07T11:46:10;101258.31;;;5.32;97.25
2549;BME280;1284;53.520;10.248;2023-12-07T11:48:35;101256.59;;;5.36;96.74
2549;BME280;1284;53.520;10.248;2023-12-07T11:51:07;101252.69;;;5.34;97.40
2549;BME280;1284;53.520;10.248;2023-12-07T11:53:37;101253.44;;;5.34;97.13
2549;BME280;1284;53.520;10.248;2023-12-07T11:56:07;101244.22;;;5.40;97.04
2549;BME280;1284;53.520;10.248;2023-12-07T11:58:34;101252.16;;;5.54;96.21
2549;BME280;1284;53.520;10.248;2023-12-07T12:01:00;101251.00;;;5.46;96.46
2549;BME280;1284;53.520;10.248;2023-12-07T12:03:27;101248.81;;;5.48;97.23
2549;BME280;1284;53.520;10.248;2023-12-07T12:05:52;101249.44;;;5.45;96.53
2549;BME280;1284;53.520;10.248;2023-12-07T12:08:19;101249.13;;;5.47;96.53
2549;BME280;1284;53.520;10.248;2023-12-07T12:10:50;101250.69;;;5.48;97.06
2549;BME280;1284;53.520;10.248;2023-12-07T12:13:16;101249.78;;;5.53;96.98
2549;BME280;1284;53.520;10.248;2023-12-07T12:15:42;101239.91;;;5.53;96.63
2549;BME280;1284;53.520;10.248;2023-12-07T12:18:09;101242.41;;;5.49;96.47
2549;BME280;1284;53.520;10.248;2023-12-07T12:20:34;101230.47;;;5.56;96.49
2549;BME280;1284;53.520;10.248;2023-12-07T12:23:00;101236.28;;;5.58;95.98
2549;BME280;1284;53.520;10.248;2023-12-07T12:25:27;101229.53;;;5.52;96.28
2549;BME280;1284;53.520;10.248;2023-12-07T12:28:03;101224.53;;;5.59;95.85
2549;BME280;1284;53.520;10.248;2023-12-07T12:30:29;101221.97;;;5.53;95.57
2549;BME280;1284;53.520;10.248;2023-12-07T12:32:56;101228.84;;;5.46;96.11
2549;BME280;1284;53.520;10.248;2023-12-07T12:35:21;101217.56;;;5.49;96.29
2549;BME280;1284;53.520;10.248;2023-12-07T12:37:48;101229.66;;;5.46;96.26
2549;BME280;1284;53.520;10.248;2023-12-07T12:40:19;101220.56;;;5.47;96.51
2549;BME280;1284;53.520;10.248;2023-12-07T12:42:46;101217.00;;;5.61;95.95
2549;BME280;1284;53.520;10.248;2023-12-07T12:45:16;101220.41;;;5.53;95.70
2549;BME280;1284;53.520;10.248;2023-12-07T12:47:42;101212.41;;;5.53;95.57
2549;BME280;1284;53.520;10.248;2023-12-07T12:50:12;101227.16;;;5.50;95.37
2549;BME280;1284;53.520;10.248;2023-12-07T12:52:39;101226.38;;;5.49;96.12
2549;BME280;1284;53.520;10.248;2023-12-07T12:55:10;101223.72;;;5.49;96.07
2549;BME280;1284;53.520;10.248;2023-12-07T12:57:36;101218.22;;;5.55;96.08
2549;BME280;1284;53.520;10.248;2023-12-07T13:00:03;101224.00;;;5.48;95.77
2549;BME280;1284;53.520;10.248;2023-12-07T13:02:33;101209.41;;;5.45;96.11
2549;BME280;1284;53.520;10.248;2023-12-07T13:04:59;101204.22;;;5.49;96.05
2549;BME280;1284;53.520;10.248;2023-12-07T13:07:24;101206.59;;;5.50;95.94
2549;BME280;1284;53.520;10.248;2023-12-07T13:09:50;101200.59;;;5.45;96.63
2549;BME280;1284;53.520;10.248;2023-12-07T13:12:16;101210.53;;;5.53;95.87
2549;BME280;1284;53.520;10.248;2023-12-07T13:14:41;101193.09;;;5.56;95.17
2549;BME280;1284;53.520;10.248;2023-12-07T13:17:07;101199.31;;;5.42;95.74